sensor_id;sensor_type;location;lat;lon;timestamp;pressure;altitude;pressure_sealevel;temperature;humidity
24868;BME280;12941;48.698;9.310;2023-12-20T00:00:41;97921.8;;;9.02;73.306
24868;BME280;12941;48.698;9.310;2023-12-20T00:01:45;97911.90000000001;;;8.96;73.274
24868;BME280;12941;48.698;9.310;2023-12-20T00:02:51;97906.6;;;8.99;73.364
24868;BME280;12941;48.698;9.310;2023-12-20T00:03:55;97907.5;;;9;73.386
24868;BME280;12941;48.698;9.310;2023-12-20T00:05:01;97911.7;;;8.99;73.45
24868;BME280;12941;48.698;9.310;2023-12-20T00:06:05;97895.4;;;9.02;73.453
24868;BME280;12941;48.698;9.310;2023-12-20T00:07:05;97906.5;;;9.02;73.434
24868;BME280;12941;48.698;9.310;2023-12-20T00:08:05;97901.4;;;9.02;73.315
24868;BME280;12941;48.698;9.310;2023-12-20T00:09:05;97889.5;;;9.01;73.432
24868;BME280;12941;48.698;9.310;2023-12-20T00:10:11;97887.7;;;9.03;73.425
24868;BME280;12941;48.698;9.310;2023-12-20T00:11:11;97891.9;;;9.04;73.458
24868;BME280;12941;48.698;9.310;2023-12-20T00:12:15;97879.1;;;9.04;73.138
24868;BME280;12941;48.698;9.310;2023-12-20T00:13:21;97896.3;;;9.02;72.984
24868;BME280;12941;48.698;9.310;2023-12-20T00:14:21;97886.90000000001;;;9.03;73.104
24868;BME280;12941;48.698;9.310;2023-12-20T00:15:21;97898.2;;;8.97;73.221
24868;BME280;12941;48.698;9.310;2023-12-20T00:16:21;97893.1;;;8.97;73.199
24868;BME280;12941;48.698;9.310;2023-12-20T00:17:25;97886.3;;;8.96;73.317
24868;BME280;12941;48.698;9.310;2023-12-20T00:18:31;97889;;;8.95;73.239
24868;BME280;12941;48.698;9.310;2023-12-20T00:19:35;97888.9;;;8.96;73.402
24868;BME280;12941;48.698;9.310;2023-12-20T00:20:35;97887.09999999999;;;8.97;73.413
24868;BME280;12941;48.698;9.310;2023-12-20T00:21:35;97885.40000000001;;;8.97;73.616
24868;BME280;12941;48.698;9.310;2023-12-20T00:22:41;97885.40000000001;;;8.97;73.542
24868;BME280;12941;48.698;9.310;2023-12-20T00:23:45;97879.6;;;8.95;73.11
24868;BME280;12941;48.698;9.310;2023-12-20T00:24:51;97876.09999999999;;;8.96;72.739
24868;BME280;12941;48.698;9.310;2023-12-20T00:25:51;97878.59999999999;;;8.98;72.635
24868;BME280;12941;48.698;9.310;2023-12-20T00:26:55;97876;;;8.98;72.217
24868;BME280;12941;48.698;9.310;2023-12-20T00:28:01;97870.8;;;8.99;72.178
24868;BME280;12941;48.698;9.310;2023-12-20T00:29:05;97869.9;;;9;72.019
24868;BME280;12941;48.698;9.310;2023-12-20T00:30:06;97858.8;;;9.01;72.159
24868;BME280;12941;48.698;9.310;2023-12-20T00:31:05;97868.1;;;9.02;72.182
24868;BME280;12941;48.698;9.310;2023-12-20T00:32:11;97864.8;;;9;72.286
24868;BME280;12941;48.698;9.310;2023-12-20T00:33:11;97865.7;;;8.99;72.221
24868;BME280;12941;48.698;9.310;2023-12-20T00:34:16;97859.7;;;9;72.382
24868;BME280;12941;48.698;9.310;2023-12-20T00:35:16;97855.5;;;8.99;72.402
24868;BME280;12941;48.698;9.310;2023-12-20T00:36:21;97858.1;;;8.99;72.424
24868;BME280;12941;48.698;9.310;2023-12-20T00:37:21;97851.2;;;9;72.402
24868;BME280;12941;48.698;9.310;2023-12-20T00:38:21;97850.2;;;9.02;72.685
24868;BME280;12941;48.698;9.310;2023-12-20T00:39:25;97863;;;9.04;72.793
24868;BME280;12941;48.698;9.310;2023-12-20T00:40:25;97859.5;;;9.05;72.711
24868;BME280;12941;48.698;9.310;2023-12-20T00:41:31;97862.8;;;9.07;72.768
24868;BME280;12941;48.698;9.310;2023-12-20T00:42:35;97856.9;;;9.06;72.787
24868;BME280;12941;48.698;9.310;2023-12-20T00:43:35;97861.8;;;9.09;72.783
24868;BME280;12941;48.698;9.310;2023-12-20T00:44:41;97859.3;;;9.08;72.352
24868;BME280;12941;48.698;9.310;2023-12-20T00:45:41;97861.7;;;9.11;72.41
24868;BME280;12941;48.698;9.310;2023-12-20T00:46:41;97852.4;;;9.1;72.537
24868;BME280;12941;48.698;9.310;2023-12-20T00:47:47;97860.79999999999;;;9.12;72.521
24868;BME280;12941;48.698;9.310;2023-12-20T00:48:51;97865.20000000001;;;9.1;72.227
24868;BME280;12941;48.698;9.310;2023-12-20T00:49:56;97865.3;;;9.08;72.202
24868;BME280;12941;48.698;9.310;2023-12-20T00:50:56;97870.4;;;9.08;72.256
24868;BME280;12941;48.698;9.310;2023-12-20T00:52:01;97864.3;;;9.11;72.442
24868;BME280;12941;48.698;9.310;2023-12-20T00:53:01;97857.5;;;9.1;72.826
24868;BME280;12941;48.698;9.310;2023-12-20T00:54:06;97863.3;;;9.14;72.715
24868;BME280;12941;48.698;9.310;2023-12-20T00:55:06;97862.40000000001;;;9.15;72.47
24868;BME280;12941;48.698;9.310;2023-12-20T00:56:11;97857.4;;;9.13;72.328
24868;BME280;12941;48.698;9.310;2023-12-20T00:57:11;97850.40000000001;;;9.17;72.227
24868;BME280;12941;48.698;9.310;2023-12-20T00:58:11;97853.2;;;9.1;72.089
24868;BME280;12941;48.698;9.310;2023-12-20T00:59:16;97847.79999999999;;;9.17;72.483
24868;BME280;12941;48.698;9.310;2023-12-20T01:00:16;97856.4;;;9.16;72.653
24868;BME280;12941;48.698;9.310;2023-12-20T01:01:21;97846.2;;;9.16;72.696
24868;BME280;12941;48.698;9.310;2023-12-20T01:02:21;97848;;;9.14;72.8
24868;BME280;12941;48.698;9.310;2023-12-20T01:03:26;97847.29999999999;;;9.1;73.029
24868;BME280;12941;48.698;9.310;2023-12-20T01:04:31;97848.90000000001;;;9.11;73.105
24868;BME280;12941;48.698;9.310;2023-12-20T01:05:36;97846.3;;;9.13;73.376
24868;BME280;12941;48.698;9.310;2023-12-20T01:06:41;97853;;;9.15;73.52
24868;BME280;12941;48.698;9.310;2023-12-20T01:07:46;97857.1;;;9.18;73.309
24868;BME280;12941;48.698;9.310;2023-12-20T01:08:46;97847.79999999999;;;9.17;73.211
24868;BME280;12941;48.698;9.310;2023-12-20T01:09:51;97858.90000000001;;;9.17;73.427
24868;BME280;12941;48.698;9.310;2023-12-20T01:10:56;97854.4;;;9.21;73.399
24868;BME280;12941;48.698;9.310;2023-12-20T01:12:01;97862.90000000001;;;9.23;73.607
24868;BME280;12941;48.698;9.310;2023-12-20T01:13:06;97856.1;;;9.22;73.584
24868;BME280;12941;48.698;9.310;2023-12-20T01:14:06;97855.2;;;9.23;73.864
24868;BME280;12941;48.698;9.310;2023-12-20T01:15:06;97867.1;;;9.22;74.065
24868;BME280;12941;48.698;9.310;2023-12-20T01:16:11;97863.8;;;9.22;74.216
24868;BME280;12941;48.698;9.310;2023-12-20T01:17:11;97863.9;;;9.19;74.477
24868;BME280;12941;48.698;9.310;2023-12-20T01:18:12;97861.2;;;9.22;74.857
24868;BME280;12941;48.698;9.310;2023-12-20T01:19:16;97859.5;;;9.21;75.068
24868;BME280;12941;48.698;9.310;2023-12-20T01:20:21;97862.90000000001;;;9.23;75.554
24868;BME280;12941;48.698;9.310;2023-12-20T01:21:21;97862;;;9.22;75.83
24868;BME280;12941;48.698;9.310;2023-12-20T01:22:21;97868.1;;;9.2;75.419
24868;BME280;12941;48.698;9.310;2023-12-20T01:23:26;97860.5;;;9.2;75.526
24868;BME280;12941;48.698;9.310;2023-12-20T01:24:31;97865.4;;;9.23;75.939
24868;BME280;12941;48.698;9.310;2023-12-20T01:25:36;97871.5;;;9.2;76.522
24868;BME280;12941;48.698;9.310;2023-12-20T01:26:41;97867.2;;;9.21;76.843
24868;BME280;12941;48.698;9.310;2023-12-20T01:27:41;97867.3;;;9.19;77.247
24868;BME280;12941;48.698;9.310;2023-12-20T01:28:46;97869.8;;;9.19;77.781
24868;BME280;12941;48.698;9.310;2023-12-20T01:29:51;97866.5;;;9.19;77.876
24868;BME280;12941;48.698;9.310;2023-12-20T01:30:51;97865;;;9.15;78.062
24868;BME280;12941;48.698;9.310;2023-12-20T01:31:51;97868.3;;;9.15;78.8
24868;BME280;12941;48.698;9.310;2023-12-20T01:32:51;97867.6;;;9.13;79.361
24868;BME280;12941;48.698;9.310;2023-12-20T01:33:56;97875.2;;;9.15;79.632
24868;BME280;12941;48.698;9.310;2023-12-20T01:34:56;97878.59999999999;;;9.15;79.964
24868;BME280;12941;48.698;9.310;2023-12-20T01:35:56;97879.4;;;9.16;80.392
24868;BME280;12941;48.698;9.310;2023-12-20T01:37:01;97877.70000000001;;;9.15;80.688
24868;BME280;12941;48.698;9.310;2023-12-20T01:38:06;97888.8;;;9.15;81.117
24868;BME280;12941;48.698;9.310;2023-12-20T01:39:06;97888;;;9.13;81.453
24868;BME280;12941;48.698;9.310;2023-12-20T01:40:06;97889;;;9.1;81.62
24868;BME280;12941;48.698;9.310;2023-12-20T01:41:11;97874.5;;;9.11;82.313
24868;BME280;12941;48.698;9.310;2023-12-20T01:42:11;97880.6;;;9.08;82.948
24868;BME280;12941;48.698;9.310;2023-12-20T01:43:12;97882.4;;;9.06;83.297
24868;BME280;12941;48.698;9.310;2023-12-20T01:44:16;97882.6;;;9.03;83.718
24868;BME280;12941;48.698;9.310;2023-12-20T01:45:16;97880.5;;;8.94;84.225
24868;BME280;12941;48.698;9.310;2023-12-20T01:46:16;97879.3;;;9;84.648
24868;BME280;12941;48.698;9.310;2023-12-20T01:47:21;97875.09999999999;;;8.99;85.147
24868;BME280;12941;48.698;9.310;2023-12-20T01:48:21;97878.59999999999;;;8.98;85.221
24868;BME280;12941;48.698;9.310;2023-12-20T01:49:21;97879.6;;;8.95;85.705
24868;BME280;12941;48.698;9.310;2023-12-20T01:50:26;97880.5;;;8.93;85.616
24868;BME280;12941;48.698;9.310;2023-12-20T01:51:31;97888.3;;;8.91;86.369
24868;BME280;12941;48.698;9.310;2023-12-20T01:52:36;97885.7;;;8.91;86.55
24868;BME280;12941;48.698;9.310;2023-12-20T01:53:36;97878.8;;;8.93;86.777
24868;BME280;12941;48.698;9.310;2023-12-20T01:54:41;97879.6;;;8.94;87.077
24868;BME280;12941;48.698;9.310;2023-12-20T01:55:41;97887.3;;;8.94;87.151
24868;BME280;12941;48.698;9.310;2023-12-20T01:56:41;97885;;;8.89;87.271
24868;BME280;12941;48.698;9.310;2023-12-20T01:57:41;97886.5;;;8.93;87.363
24868;BME280;12941;48.698;9.310;2023-12-20T01:58:46;97881.2;;;8.96;87.786
24868;BME280;12941;48.698;9.310;2023-12-20T01:59:46;97880.3;;;8.97;88.03
24868;BME280;12941;48.698;9.310;2023-12-20T02:00:46;97877.8;;;8.97;88.052
24868;BME280;12941;48.698;9.310;2023-12-20T02:01:46;97873.40000000001;;;8.99;88.164
24868;BME280;12941;48.698;9.310;2023-12-20T02:02:51;97870.9;;;8.98;88.043
24868;BME280;12941;48.698;9.310;2023-12-20T02:03:51;97873.40000000001;;;8.99;88.355
24868;BME280;12941;48.698;9.310;2023-12-20T02:04:51;97882.7;;;9;88.603
24868;BME280;12941;48.698;9.310;2023-12-20T02:05:51;97875.9;;;9.01;88.551
24868;BME280;12941;48.698;9.310;2023-12-20T02:06:52;97872.5;;;9;88.518
24868;BME280;12941;48.698;9.310;2023-12-20T02:07:56;97870.2;;;8.96;88.71
24868;BME280;12941;48.698;9.310;2023-12-20T02:09:01;97874.2;;;9;89.176
24868;BME280;12941;48.698;9.310;2023-12-20T02:10:01;97870.8;;;8.99;88.973
24868;BME280;12941;48.698;9.310;2023-12-20T02:11:01;97874.1;;;9.01;89.094
24868;BME280;12941;48.698;9.310;2023-12-20T02:12:01;97865.7;;;8.99;89.026
24868;BME280;12941;48.698;9.310;2023-12-20T02:13:06;97860.6;;;8.99;88.952
24868;BME280;12941;48.698;9.310;2023-12-20T02:14:11;97876.8;;;8.98;89.067
24868;BME280;12941;48.698;9.310;2023-12-20T02:15:16;97879.4;;;8.98;89.216
24868;BME280;12941;48.698;9.310;2023-12-20T02:16:16;97865.7;;;8.99;89.633
24868;BME280;12941;48.698;9.310;2023-12-20T02:17:16;97865.7;;;8.99;89.622
24868;BME280;12941;48.698;9.310;2023-12-20T02:18:16;97868.3;;;8.99;89.122
24868;BME280;12941;48.698;9.310;2023-12-20T02:19:21;97869.2;;;8.98;89.344
24868;BME280;12941;48.698;9.310;2023-12-20T02:20:26;97878.7;;;8.96;89.425
24868;BME280;12941;48.698;9.310;2023-12-20T02:21:31;97875.3;;;8.94;89.581
24868;BME280;12941;48.698;9.310;2023-12-20T02:22:26;97867.6;;;8.96;89.316
24868;BME280;12941;48.698;9.310;2023-12-20T02:23:31;97874.40000000001;;;8.95;89.592
24868;BME280;12941;48.698;9.310;2023-12-20T02:24:31;97871;;;8.96;89.681
24868;BME280;12941;48.698;9.310;2023-12-20T02:25:31;97860;;;8.94;89.708
24868;BME280;12941;48.698;9.310;2023-12-20T02:26:36;97871;;;8.96;89.691
24868;BME280;12941;48.698;9.310;2023-12-20T02:27:36;97866.8;;;8.95;89.921
24868;BME280;12941;48.698;9.310;2023-12-20T02:28:36;97870.3;;;8.93;90.269
24868;BME280;12941;48.698;9.310;2023-12-20T02:29:41;97865.20000000001;;;8.93;90.279
24868;BME280;12941;48.698;9.310;2023-12-20T02:30:41;97864.3;;;8.94;90.271
24868;BME280;12941;48.698;9.310;2023-12-20T02:31:46;97865.20000000001;;;8.93;90.119
24868;BME280;12941;48.698;9.310;2023-12-20T02:32:51;97860.2;;;8.91;90.104
24868;BME280;12941;48.698;9.310;2023-12-20T02:33:56;97868;;;8.88;90.152
24868;BME280;12941;48.698;9.310;2023-12-20T02:34:57;97862.90000000001;;;8.88;90.376
24868;BME280;12941;48.698;9.310;2023-12-20T02:35:57;97861.90000000001;;;8.91;90.478
24868;BME280;12941;48.698;9.310;2023-12-20T02:36:57;97862.7;;;8.91;90.626
24868;BME280;12941;48.698;9.310;2023-12-20T02:38:01;97861.90000000001;;;8.91;90.573
24868;BME280;12941;48.698;9.310;2023-12-20T02:39:01;97862.90000000001;;;8.88;90.694
24868;BME280;12941;48.698;9.310;2023-12-20T02:40:01;97863.9;;;8.84;90.57
24868;BME280;12941;48.698;9.310;2023-12-20T02:41:01;97868;;;8.88;90.801
24868;BME280;12941;48.698;9.310;2023-12-20T02:42:01;97868.1;;;8.85;90.593
24868;BME280;12941;48.698;9.310;2023-12-20T02:43:07;97874.1;;;8.84;90.942
24868;BME280;12941;48.698;9.310;2023-12-20T02:44:07;97870;;;8.8;91.051
24868;BME280;12941;48.698;9.310;2023-12-20T02:45:07;97870.1;;;8.79;91.186
24868;BME280;12941;48.698;9.310;2023-12-20T02:46:07;97873.6;;;8.78;91.173
24868;BME280;12941;48.698;9.310;2023-12-20T02:47:11;97869.3;;;8.78;91.483
24868;BME280;12941;48.698;9.310;2023-12-20T02:48:12;97869.2;;;8.8;91.709
24868;BME280;12941;48.698;9.310;2023-12-20T02:49:16;97866.6;;;8.81;91.764
24868;BME280;12941;48.698;9.310;2023-12-20T02:50:21;97877.59999999999;;;8.82;91.638
24868;BME280;12941;48.698;9.310;2023-12-20T02:51:21;97877.4;;;8.86;91.244
24868;BME280;12941;48.698;9.310;2023-12-20T02:52:22;97870.6;;;8.87;91.053
24868;BME280;12941;48.698;9.310;2023-12-20T02:53:26;97876.5;;;8.87;91.022
24868;BME280;12941;48.698;9.310;2023-12-20T02:54:27;97868.4;;;8.79;90.94
24868;BME280;12941;48.698;9.310;2023-12-20T02:55:27;97873.1;;;8.88;91.024
24868;BME280;12941;48.698;9.310;2023-12-20T02:56:31;97875.59999999999;;;8.88;90.801
24868;BME280;12941;48.698;9.310;2023-12-20T02:57:31;97881;;;8.84;90.865
24868;BME280;12941;48.698;9.310;2023-12-20T02:58:37;97871.3;;;8.9;90.783
24868;BME280;12941;48.698;9.310;2023-12-20T02:59:37;97872.1;;;8.91;90.722
24868;BME280;12941;48.698;9.310;2023-12-20T03:00:41;97872;;;8.94;90.897
24868;BME280;12941;48.698;9.310;2023-12-20T03:01:47;97877.09999999999;;;8.94;90.845
24868;BME280;12941;48.698;9.310;2023-12-20T03:02:47;97874.40000000001;;;8.95;90.708
24868;BME280;12941;48.698;9.310;2023-12-20T03:03:51;97873.5;;;8.98;90.576
24868;BME280;12941;48.698;9.310;2023-12-20T03:04:51;97882;;;8.98;90.376
24868;BME280;12941;48.698;9.310;2023-12-20T03:05:57;97880.2;;;8.99;90.248
24868;BME280;12941;48.698;9.310;2023-12-20T03:07:01;97877.59999999999;;;9;90.178
24868;BME280;12941;48.698;9.310;2023-12-20T03:08:02;97874.1;;;9.01;90.222
24868;BME280;12941;48.698;9.310;2023-12-20T03:09:02;97872.29999999999;;;9.03;89.981
24868;BME280;12941;48.698;9.310;2023-12-20T03:10:02;97872.2;;;9.06;89.944
24868;BME280;12941;48.698;9.310;2023-12-20T03:11:01;97875.5;;;9.08;89.703
24868;BME280;12941;48.698;9.310;2023-12-20T03:12:02;97873;;;9.08;89.587
24868;BME280;12941;48.698;9.310;2023-12-20T03:13:07;97880.8;;;9.05;89.455
24868;BME280;12941;48.698;9.310;2023-12-20T03:14:12;97878.2;;;9.05;89.646
24868;BME280;12941;48.698;9.310;2023-12-20T03:15:12;97880.8;;;9.05;89.827
24868;BME280;12941;48.698;9.310;2023-12-20T03:16:17;97884.2;;;9.04;89.983
24868;BME280;12941;48.698;9.310;2023-12-20T03:17:17;97886.2;;;8.99;90.112
24868;BME280;12941;48.698;9.310;2023-12-20T03:18:22;97886.8;;;9.04;90.217
24868;BME280;12941;48.698;9.310;2023-12-20T03:19:27;97889.3;;;9.04;90.186
24868;BME280;12941;48.698;9.310;2023-12-20T03:20:32;97893.5;;;9.07;90.085
24868;BME280;12941;48.698;9.310;2023-12-20T03:21:32;97894.5;;;9.04;89.855
24868;BME280;12941;48.698;9.310;2023-12-20T03:22:32;97886.90000000001;;;9.03;89.875
24868;BME280;12941;48.698;9.310;2023-12-20T03:23:32;97886.8;;;9.04;89.792
24868;BME280;12941;48.698;9.310;2023-12-20T03:24:37;97890;;;9.08;89.746
24868;BME280;12941;48.698;9.310;2023-12-20T03:25:42;97895.2;;;9.06;89.721
24868;BME280;12941;48.698;9.310;2023-12-20T03:26:42;97888.3;;;9.08;89.8
24868;BME280;12941;48.698;9.310;2023-12-20T03:27:42;97885.90000000001;;;9.05;89.849
24868;BME280;12941;48.698;9.310;2023-12-20T03:28:47;97890;;;9.09;89.75
24868;BME280;12941;48.698;9.310;2023-12-20T03:29:52;97891.6;;;9.1;89.73
24868;BME280;12941;48.698;9.310;2023-12-20T03:30:57;97892.3;;;9.13;89.671
24868;BME280;12941;48.698;9.310;2023-12-20T03:32:02;97897.40000000001;;;9.13;89.66
24868;BME280;12941;48.698;9.310;2023-12-20T03:33:02;97894.7;;;9.16;89.58
24868;BME280;12941;48.698;9.310;2023-12-20T03:34:07;97893.1;;;9.15;89.568
24868;BME280;12941;48.698;9.310;2023-12-20T03:35:07;97894.6;;;9.19;89.65
24868;BME280;12941;48.698;9.310;2023-12-20T03:36:07;97891.09999999999;;;9.2;89.492
24868;BME280;12941;48.698;9.310;2023-12-20T03:37:07;97895.5;;;9.18;89.297
24868;BME280;12941;48.698;9.310;2023-12-20T03:38:07;97892;;;9.19;89.086
24868;BME280;12941;48.698;9.310;2023-12-20T03:39:12;97892.8;;;9.21;88.994
24868;BME280;12941;48.698;9.310;2023-12-20T03:40:17;97900.3;;;9.24;88.98
24868;BME280;12941;48.698;9.310;2023-12-20T03:41:17;97894.2;;;9.26;88.826
24868;BME280;12941;48.698;9.310;2023-12-20T03:42:22;97896.5;;;9.32;88.699
24868;BME280;12941;48.698;9.310;2023-12-20T03:43:22;97899.7;;;9.36;88.386
24868;BME280;12941;48.698;9.310;2023-12-20T03:44:22;97902;;;9.42;88.281
24868;BME280;12941;48.698;9.310;2023-12-20T03:45:27;97906;;;9.46;88.046
24868;BME280;12941;48.698;9.310;2023-12-20T03:46:27;97903.2;;;9.51;87.211
24868;BME280;12941;48.698;9.310;2023-12-20T03:47:32;97908.1;;;9.55;86.837
24868;BME280;12941;48.698;9.310;2023-12-20T03:48:37;97897.7;;;9.6;86.814
24868;BME280;12941;48.698;9.310;2023-12-20T03:49:42;97908.4;;;9.66;86.71
24868;BME280;12941;48.698;9.310;2023-12-20T03:50:47;97904.8;;;9.7;86.227
24868;BME280;12941;48.698;9.310;2023-12-20T03:51:52;97901.2;;;9.74;85.873
24868;BME280;12941;48.698;9.310;2023-12-20T03:52:57;97905.2;;;9.78;85.592
24868;BME280;12941;48.698;9.310;2023-12-20T03:53:57;97907.6;;;9.82;85.032
24868;BME280;12941;48.698;9.310;2023-12-20T03:55:02;97902.3;;;9.85;84.749
24868;BME280;12941;48.698;9.310;2023-12-20T03:56:07;97910.79999999999;;;9.87;84.507
24868;BME280;12941;48.698;9.310;2023-12-20T03:57:07;97907.2;;;9.91;84.1
24868;BME280;12941;48.698;9.310;2023-12-20T03:58:07;97913;;;9.93;83.708
24868;BME280;12941;48.698;9.310;2023-12-20T03:59:12;97910.29999999999;;;9.96;83.446
24868;BME280;12941;48.698;9.310;2023-12-20T04:00:12;97912.7;;;9.99;83.41
24868;BME280;12941;48.698;9.310;2023-12-20T04:01:17;97907.4;;;10.02;83.191
24868;BME280;12941;48.698;9.310;2023-12-20T04:02:22;97905.7;;;10.02;82.956
24868;BME280;12941;48.698;9.310;2023-12-20T04:03:27;97904;;;10.03;82.691
24868;BME280;12941;48.698;9.310;2023-12-20T04:04:27;97909.79999999999;;;10.05;82.716
24868;BME280;12941;48.698;9.310;2023-12-20T04:05:32;97906.4;;;10.06;82.878
24868;BME280;12941;48.698;9.310;2023-12-20T04:06:37;97904.7;;;10.05;82.897
24868;BME280;12941;48.698;9.310;2023-12-20T04:07:42;97909.1;;;10.03;82.894
24868;BME280;12941;48.698;9.310;2023-12-20T04:08:47;97907.4;;;10.02;82.903
24868;BME280;12941;48.698;9.310;2023-12-20T04:09:47;97905.9;;;9.99;83.005
24868;BME280;12941;48.698;9.310;2023-12-20T04:10:52;97909.40000000001;;;9.97;82.809
24868;BME280;12941;48.698;9.310;2023-12-20T04:11:52;97913.59999999999;;;9.98;82.819
24868;BME280;12941;48.698;9.310;2023-12-20T04:12:57;97911.3;;;9.93;82.938
24868;BME280;12941;48.698;9.310;2023-12-20T04:14:02;97915.7;;;9.91;83.288
24868;BME280;12941;48.698;9.310;2023-12-20T04:15:07;97918.2;;;9.91;83.127
24868;BME280;12941;48.698;9.310;2023-12-20T04:16:07;97917.4;;;9.91;83.105
24868;BME280;12941;48.698;9.310;2023-12-20T04:17:07;97923.40000000001;;;9.91;83.277
24868;BME280;12941;48.698;9.310;2023-12-20T04:18:07;97917.4;;;9.91;83.234
24868;BME280;12941;48.698;9.310;2023-12-20T04:19:07;97914.09999999999;;;9.89;83.177
24868;BME280;12941;48.698;9.310;2023-12-20T04:20:12;97922.7;;;9.88;83.442
24868;BME280;12941;48.698;9.310;2023-12-20T04:21:17;97915.09999999999;;;9.86;83.257
24868;BME280;12941;48.698;9.310;2023-12-20T04:22:22;97914.3;;;9.86;83.375
24868;BME280;12941;48.698;9.310;2023-12-20T04:23:22;97912.59999999999;;;9.85;83.521
24868;BME280;12941;48.698;9.310;2023-12-20T04:24:22;97906.7;;;9.83;83.592
24868;BME280;12941;48.698;9.310;2023-12-20T04:25:22;97915.20000000001;;;9.85;83.468
24868;BME280;12941;48.698;9.310;2023-12-20T04:26:22;97915.09999999999;;;9.86;83.375
24868;BME280;12941;48.698;9.310;2023-12-20T04:27:27;97919.5;;;9.83;83.399
24868;BME280;12941;48.698;9.310;2023-12-20T04:28:27;97928.09999999999;;;9.82;83.526
24868;BME280;12941;48.698;9.310;2023-12-20T04:29:32;97918;;;9.78;83.542
24868;BME280;12941;48.698;9.310;2023-12-20T04:30:37;97928.3;;;9.78;83.799
24868;BME280;12941;48.698;9.310;2023-12-20T04:31:42;97931.1;;;9.74;84.163
24868;BME280;12941;48.698;9.310;2023-12-20T04:32:47;97940.5;;;9.73;84.228
24868;BME280;12941;48.698;9.310;2023-12-20T04:33:47;97939.8;;;9.7;84.391
24868;BME280;12941;48.698;9.310;2023-12-20T04:34:52;97941.5;;;9.69;84.348
24868;BME280;12941;48.698;9.310;2023-12-20T04:35:52;97941.6;;;9.68;84.494
24868;BME280;12941;48.698;9.310;2023-12-20T04:36:57;97941.6;;;9.68;84.622
24868;BME280;12941;48.698;9.310;2023-12-20T04:37:57;97939.09999999999;;;9.66;84.629
24868;BME280;12941;48.698;9.310;2023-12-20T04:39:02;97937.5;;;9.65;84.691
24868;BME280;12941;48.698;9.310;2023-12-20T04:40:07;97942.6;;;9.65;84.659
24868;BME280;12941;48.698;9.310;2023-12-20T04:41:07;97938.4;;;9.64;84.646
24868;BME280;12941;48.698;9.310;2023-12-20T04:42:12;97935.79999999999;;;9.64;84.796
24868;BME280;12941;48.698;9.310;2023-12-20T04:43:12;97929;;;9.63;84.741
24868;BME280;12941;48.698;9.310;2023-12-20T04:44:17;97932.4;;;9.64;84.57
24868;BME280;12941;48.698;9.310;2023-12-20T04:45:17;97927.4;;;9.62;84.194
24868;BME280;12941;48.698;9.310;2023-12-20T04:46:17;97930;;;9.62;84.152
24868;BME280;12941;48.698;9.310;2023-12-20T04:47:17;97938.5;;;9.61;84.266
24868;BME280;12941;48.698;9.310;2023-12-20T04:48:17;97942;;;9.6;84.138
24868;BME280;12941;48.698;9.310;2023-12-20T04:49:22;97939.4;;;9.6;84.212
24868;BME280;12941;48.698;9.310;2023-12-20T04:50:22;97930.9;;;9.6;84.393
24868;BME280;12941;48.698;9.310;2023-12-20T04:51:27;97937.8;;;9.59;84.358
24868;BME280;12941;48.698;9.310;2023-12-20T04:52:27;97940.4;;;9.58;84.261
24868;BME280;12941;48.698;9.310;2023-12-20T04:53:32;97953.3;;;9.56;84.118
24868;BME280;12941;48.698;9.310;2023-12-20T04:54:37;97952.5;;;9.56;84.203
24868;BME280;12941;48.698;9.310;2023-12-20T04:55:42;97953.3;;;9.56;84.278
24868;BME280;12941;48.698;9.310;2023-12-20T04:56:42;97961.8;;;9.57;84.27
24868;BME280;12941;48.698;9.310;2023-12-20T04:57:47;97965.20000000001;;;9.57;84.099
24868;BME280;12941;48.698;9.310;2023-12-20T04:58:47;97966.8;;;9.58;83.942
24868;BME280;12941;48.698;9.310;2023-12-20T04:59:47;97963.4;;;9.59;83.846
24868;BME280;12941;48.698;9.310;2023-12-20T05:00:52;97965.09999999999;;;9.59;83.696
24868;BME280;12941;48.698;9.310;2023-12-20T05:01:52;97958.3;;;9.59;83.675
24868;BME280;12941;48.698;9.310;2023-12-20T05:02:57;97953.09999999999;;;9.59;83.653
24868;BME280;12941;48.698;9.310;2023-12-20T05:03:57;97949.7;;;9.6;83.551
24868;BME280;12941;48.698;9.310;2023-12-20T05:05:02;97950.5;;;9.61;83.433
24868;BME280;12941;48.698;9.310;2023-12-20T05:06:07;97949.5;;;9.63;83.471
24868;BME280;12941;48.698;9.310;2023-12-20T05:07:07;97947;;;9.63;83.193
24868;BME280;12941;48.698;9.310;2023-12-20T05:08:12;97946.3;;;9.6;83.068
24868;BME280;12941;48.698;9.310;2023-12-20T05:09:17;97959;;;9.61;83.155
24868;BME280;12941;48.698;9.310;2023-12-20T05:10:17;97964.9;;;9.63;83.012
24868;BME280;12941;48.698;9.310;2023-12-20T05:11:17;97960.7;;;9.62;82.839
24868;BME280;12941;48.698;9.310;2023-12-20T05:12:22;97954.6;;;9.63;82.755
24868;BME280;12941;48.698;9.310;2023-12-20T05:13:27;97958.90000000001;;;9.64;82.885
24868;BME280;12941;48.698;9.310;2023-12-20T05:14:27;97953.8;;;9.63;82.478
24868;BME280;12941;48.698;9.310;2023-12-20T05:15:27;97969.2;;;9.63;82.531
24868;BME280;12941;48.698;9.310;2023-12-20T05:16:32;97966.7;;;9.61;82.354
24868;BME280;12941;48.698;9.310;2023-12-20T05:17:32;97964.09999999999;;;9.61;82.515
24868;BME280;12941;48.698;9.310;2023-12-20T05:18:32;97963.4;;;9.59;82.607
24868;BME280;12941;48.698;9.310;2023-12-20T05:19:37;97962.5;;;9.6;82.622
24868;BME280;12941;48.698;9.310;2023-12-20T05:20:37;97971.8;;;9.61;82.675
24868;BME280;12941;48.698;9.310;2023-12-20T05:21:42;97968.5;;;9.59;82.746
24868;BME280;12941;48.698;9.310;2023-12-20T05:22:47;97965.9;;;9.59;82.874
24868;BME280;12941;48.698;9.310;2023-12-20T05:23:52;97968.5;;;9.59;82.981
24868;BME280;12941;48.698;9.310;2023-12-20T05:24:57;97975.3;;;9.6;82.803
24868;BME280;12941;48.698;9.310;2023-12-20T05:26:02;97973.6;;;9.59;82.811
24868;BME280;12941;48.698;9.310;2023-12-20T05:27:02;97979.6;;;9.6;82.876
24868;BME280;12941;48.698;9.310;2023-12-20T05:28:07;97984.7;;;9.6;82.822
24868;BME280;12941;48.698;9.310;2023-12-20T05:29:07;97983.8;;;9.59;82.789